This is the latest recevied weather packets stored in our database for station/object EA1HEH-13. If no packets are shown the sender has not sent any weather packets the latest 10 day(s).
| Time | Temp. | Humidity | Pressure | Rain* | Wind** | Luminosity | Snow |
|---|---|---|---|---|---|---|---|
| 1777488336 | 16.11° C | 53% | 930.9 hPa | - | - | - | - |
| 1777487736 | 16.67° C | 53% | 929.3 hPa | - | - | - | - |
| 1777487136 | 17.78° C | 50% | 929.7 hPa | - | - | - | - |
| 1777486536 | 18.89° C | 49% | 929.3 hPa | - | - | - | - |
| 1777485936 | 18.89° C | 48% | 928.8 hPa | - | - | - | - |
| 1777485336 | 18.89° C | 48% | 929.2 hPa | - | - | - | - |
| 1777484736 | 18.89° C | 49% | 929.1 hPa | - | - | - | - |
| 1777484136 | 18.89° C | 49% | 928.8 hPa | - | - | - | - |
| 1777483536 | 18.89° C | 50% | 928.4 hPa | - | - | - | - |
| 1777482936 | 18.33° C | 50% | 928.3 hPa | - | - | - | - |
| 1777482336 | 18.33° C | 51% | 928.2 hPa | - | - | - | - |
| 1777481735 | 18.33° C | 51% | 928.4 hPa | - | - | - | - |
| 1777481136 | 17.78° C | 51% | 928.6 hPa | - | - | - | - |
| 1777480536 | 18.89° C | 47% | 928.7 hPa | - | - | - | - |
| 1777479936 | 19.44° C | 43% | 928.5 hPa | - | - | - | - |
| 1777479336 | 20° C | 43% | 928.3 hPa | - | - | - | - |
| 1777478736 | 20.56° C | 45% | 927.9 hPa | - | - | - | - |
| 1777478136 | 20° C | 45% | 927.9 hPa | - | - | - | - |
| 1777477536 | 20.56° C | 44% | 927.9 hPa | - | - | - | - |
| 1777476935 | 20.56° C | 44% | 927.5 hPa | - | - | - | - |
| 1777476336 | 20° C | 45% | 927.6 hPa | - | - | - | - |
| 1777475739 | 20° C | 44% | 927.6 hPa | - | - | - | - |
| 1777475135 | 20° C | 44% | 927.9 hPa | - | - | - | - |
| 1777474535 | 20° C | 44% | 927.9 hPa | - | - | - | - |
| 1777473936 | 20° C | 44% | 927.8 hPa | - | - | - | - |
* Rain since midnight (hover to see other rain measurements)
** Current wind speed in m/s (hover to see current wind gust speed)